Time;durP1;ratioP1;P1;durP2;ratioP2;P2;SDS_P1;SDS_P2;PMS_P1;PMS_P2;Temp;Humidity;BMP_temperature;BMP_pressure;BME280_temperature;BME280_humidity;BME280_pressure;Samples;Min_cycle;Max_cycle;Signal;HPM_P1;HPM_P2
2023/09/03 00:00:44;;;;;;;16.40;7.00;;;;;;;14.42;80.03;97787.74;104878;1259;102269;-74
2023/09/03 00:03:31;;;;;;;9.30;7.00;;;;;;;14.43;79.91;97787.91;104865;1254;100430;-74
2023/09/03 00:05:59;;;;;;;15.20;7.60;;;;;;;14.42;79.98;97787.79;104812;1266;99316;-74
2023/09/03 00:08:27;;;;;;;12.00;6.50;;;;;;;14.42;79.79;97784.63;104846;1277;96600;-74
2023/09/03 00:10:55;;;;;;;13.90;7.20;;;;;;;14.41;79.90;97776.73;104987;1255;97020;-73
2023/09/03 00:13:22;;;;;;;9.50;6.60;;;;;;;14.41;79.77;97780.31;105047;1257;102388;-74
2023/09/03 00:15:50;;;;;;;9.20;6.80;;;;;;;14.40;79.72;97787.05;105034;1260;101053;-85
2023/09/03 00:18:18;;;;;;;13.10;6.90;;;;;;;14.36;79.68;97788.87;104676;1258;100028;-86
2023/09/03 00:21:01;;;;;;;13.70;6.80;;;;;;;14.29;79.81;97786.86;104701;1262;96893;-85
2023/09/03 00:23:30;;;;;;;11.90;6.50;;;;;;;14.24;80.04;97782.45;108145;1256;95757;-87
2023/09/03 00:25:57;;;;;;;7.60;6.10;;;;;;;14.17;79.98;97772.87;106752;1259;101184;-86
2023/09/03 00:28:26;;;;;;;18.50;6.80;;;;;;;14.10;80.02;97763.55;104533;1260;100550;-86
2023/09/03 00:31:08;;;;;;;11.00;6.90;;;;;;;14.03;80.25;97760.56;104439;1264;99115;-74
2023/09/03 00:33:37;;;;;;;8.90;6.50;;;;;;;13.99;80.38;97765.23;104689;1262;97935;-74
2023/09/03 00:36:08;;;;;;;9.30;6.90;;;;;;;14.00;80.61;97766.45;104491;1262;97263;-74
2023/09/03 00:38:36;;;;;;;12.60;7.40;;;;;;;14.03;80.57;97774.17;104587;1263;102122;-74
2023/09/03 00:41:04;;;;;;;12.20;6.20;;;;;;;14.04;80.45;97774.55;104464;1280;100410;-73
2023/09/03 00:43:33;;;;;;;7.80;6.50;;;;;;;14.05;80.50;97768.27;104548;1275;99150;-74
2023/09/03 00:46:08;;;;;;;9.80;6.90;;;;;;;14.04;80.50;97770.20;104539;1260;96811;-85
2023/09/03 00:48:37;;;;;;;8.10;6.40;;;;;;;13.99;80.34;97764.64;104552;1262;97335;-85
2023/09/03 00:51:11;;;;;;;7.70;5.80;;;;;;;13.97;80.26;97764.15;104557;1262;101258;-85
2023/09/03 00:53:44;;;;;;;11.10;6.20;;;;;;;13.98;80.23;97765.36;104838;1258;100336;-85
2023/09/03 00:56:12;;;;;;;7.30;6.10;;;;;;;13.98;80.11;97763.14;104572;1261;98960;-85
2023/09/03 00:58:41;;;;;;;11.60;5.90;;;;;;;13.97;80.10;97765.61;104523;1264;97240;-85
2023/09/03 01:01:10;;;;;;;7.90;5.50;;;;;;;13.94;80.18;97763.00;104927;1257;97103;-74
2023/09/03 01:03:38;;;;;;;8.80;5.90;;;;;;;13.84;80.23;97759.42;104726;1262;102203;-74
2023/09/03 01:06:06;;;;;;;12.50;6.90;;;;;;;13.72;80.34;97760.00;104884;1259;100080;-74
2023/09/03 01:08:35;;;;;;;7.30;5.80;;;;;;;13.61;80.58;97762.94;104928;1253;99806;-74
2023/09/03 01:11:22;;;;;;;6.80;5.70;;;;;;;13.63;80.70;97765.96;104634;1271;97589;-74
2023/09/03 01:14:00;;;;;;;7.20;6.00;;;;;;;13.67;80.78;97770.17;104897;1259;97000;-73
2023/09/03 01:16:37;;;;;;;10.40;6.10;;;;;;;13.69;80.96;97771.34;104866;1259;100699;-74
2023/09/03 01:19:26;;;;;;;8.30;6.10;;;;;;;13.66;80.90;97767.52;104869;1258;100460;-74
2023/09/03 01:22:16;;;;;;;10.10;5.90;;;;;;;13.62;80.83;97767.78;104802;1259;107338;-74
2023/09/03 01:25:13;;;;;;;7.40;6.10;;;;;;;13.63;81.05;97770.21;104874;1259;97166;-74
2023/09/03 01:27:56;;;;;;;11.20;5.90;;;;;;;13.63;81.08;97769.73;104822;1255;97983;-73
2023/09/03 01:30:24;;;;;;;7.90;4.80;;;;;;;13.61;81.10;97769.06;104875;1259;101079;-74
2023/09/03 01:32:53;;;;;;;8.60;5.50;;;;;;;13.61;81.01;97766.56;104812;1258;101802;-73
2023/09/03 01:35:23;;;;;;;6.90;6.10;;;;;;;13.56;80.86;97768.02;104783;1259;99932;-74
2023/09/03 01:37:51;;;;;;;7.00;5.70;;;;;;;13.56;80.95;97766.65;104591;1262;96818;-74
2023/09/03 01:40:18;;;;;;;8.00;5.40;;;;;;;13.57;81.15;97763.42;104888;1258;96977;-73
2023/09/03 01:42:46;;;;;;;6.70;5.30;;;;;;;13.52;81.19;97760.89;104860;1258;101190;-74
2023/09/03 01:45:14;;;;;;;9.00;5.50;;;;;;;13.50;81.21;97760.48;104884;1261;108395;-73
2023/09/03 01:48:01;;;;;;;9.50;5.60;;;;;;;13.52;81.36;97756.23;104850;1277;99899;-81
2023/09/03 01:50:39;;;;;;;11.80;5.80;;;;;;;13.54;81.42;97753.39;104844;1258;97864;-73
2023/09/03 01:53:30;;;;;;;9.30;5.10;;;;;;;13.54;81.19;97751.39;104577;1278;97509;-73
2023/09/03 01:56:03;;;;;;;5.60;4.90;;;;;;;13.53;81.10;97756.52;104894;1259;101261;-73
2023/09/03 01:58:35;;;;;;;8.30;5.00;;;;;;;13.53;81.06;97750.27;104884;1261;108357;-73
2023/09/03 02:01:04;;;;;;;8.60;5.40;;;;;;;13.52;81.04;97747.63;104530;1264;99374;-73
2023/09/03 02:03:32;;;;;;;9.10;5.40;;;;;;;13.53;80.95;97743.98;104816;1254;97502;-73
2023/09/03 02:06:00;;;;;;;9.70;5.20;;;;;;;13.52;80.82;97743.70;104608;1253;98324;-73
2023/09/03 02:08:28;;;;;;;6.70;5.30;;;;;;;13.51;81.01;97739.38;104840;1258;102155;-73
2023/09/03 02:10:56;;;;;;;7.70;5.90;;;;;;;13.51;81.10;97741.55;104830;1259;100689;-84
2023/09/03 02:13:23;;;;;;;6.20;5.40;;;;;;;13.50;80.99;97741.59;104854;1258;98976;-84
2023/09/03 02:15:51;;;;;;;10.00;5.70;;;;;;;13.50;81.06;97742.23;104857;1253;96635;-73
2023/09/03 02:18:19;;;;;;;10.70;5.80;;;;;;;13.49;81.14;97742.73;104883;1258;97007;-73
2023/09/03 02:20:46;;;;;;;7.30;6.00;;;;;;;13.47;81.20;97739.14;104867;1258;101291;-73
2023/09/03 02:23:14;;;;;;;8.20;5.30;;;;;;;13.44;81.20;97738.54;104896;1260;101549;-73
2023/09/03 02:25:42;;;;;;;9.40;5.20;;;;;;;13.36;81.23;97739.31;104836;1267;99773;-73
2023/09/03 02:28:09;;;;;;;8.90;6.00;;;;;;;13.28;81.25;97740.97;104870;1253;97512;-73
2023/09/03 02:30:37;;;;;;;6.30;5.30;;;;;;;13.26;81.42;97741.41;104905;1258;97329;-84
2023/09/03 02:33:05;;;;;;;7.70;5.70;;;;;;;13.26;81.54;97741.78;104860;1254;101291;-83
2023/09/03 02:35:33;;;;;;;9.00;5.40;;;;;;;13.28;81.52;97746.05;104871;1270;100206;-84
2023/09/03 02:38:00;;;;;;;8.80;6.20;;;;;;;13.30;81.50;97747.04;104752;1270;99770;-84
2023/09/03 02:40:28;;;;;;;7.50;5.60;;;;;;;13.30;81.55;97741.94;104786;1269;96640;-84
2023/09/03 02:42:56;;;;;;;9.50;6.10;;;;;;;13.30;81.55;97738.31;104543;1262;97199;-84
2023/09/03 02:45:24;;;;;;;7.20;5.80;;;;;;;13.32;81.53;97739.14;104905;1259;102030;-84
2023/09/03 02:47:52;;;;;;;8.10;5.40;;;;;;;13.32;81.34;97740.55;104826;1259;101385;-73
2023/09/03 02:50:19;;;;;;;7.20;5.80;;;;;;;13.31;81.37;97739.48;104856;1269;98988;-73
2023/09/03 02:52:47;;;;;;;8.60;6.00;;;;;;;13.30;81.51;97735.06;104860;1260;96578;-73
2023/09/03 10:12:15;;;;;;;4.90;3.80;;;;;;;17.83;84.10;97844.91;104900;1260;100351;-85
2023/09/03 10:14:43;;;;;;;4.10;3.70;;;;;;;17.89;84.20;97843.70;105007;1259;97880;-83
2023/09/03 10:17:11;;;;;;;3.80;3.30;;;;;;;17.92;83.50;97840.53;104848;1265;97103;-85
2023/09/03 10:19:47;;;;;;;3.90;3.40;;;;;;;17.93;83.15;97839.06;104805;1260;101211;-84
2023/09/03 10:22:18;;;;;;;4.50;3.40;;;;;;;17.99;82.80;97836.48;104847;1264;99975;-84
2023/09/03 10:25:13;;;;;;;4.00;3.10;;;;;;;18.09;82.84;97837.63;104553;1273;100247;-85
2023/09/03 10:27:51;;;;;;;3.60;3.30;;;;;;;18.19;82.68;97834.58;104817;1262;96568;-84
2023/09/03 10:30:26;;;;;;;3.90;3.40;;;;;;;18.26;82.13;97830.91;104545;1265;96702;-85
2023/09/03 10:32:55;;;;;;;4.50;4.00;;;;;;;18.30;81.78;97832.34;104984;1268;101267;-84
2023/09/03 10:35:23;;;;;;;6.20;4.60;;;;;;;18.48;82.22;97834.30;104500;1278;101106;-84
2023/09/03 10:37:51;;;;;;;4.10;3.70;;;;;;;18.81;82.62;97831.11;104802;1267;99036;-85
2023/09/03 10:40:20;;;;;;;3.80;3.40;;;;;;;19.17;82.04;97823.52;104824;1268;96729;-83
2023/09/03 10:42:53;;;;;;;6.50;4.00;;;;;;;19.38;81.04;97818.77;104797;1264;97077;-84
2023/09/03 10:45:21;;;;;;;7.30;4.30;;;;;;;19.50;80.44;97811.80;104608;1263;102186;-83
2023/09/03 10:48:06;;;;;;;4.50;4.10;;;;;;;19.60;80.27;97806.77;104855;1269;101464;-84
2023/09/03 10:50:50;;;;;;;4.80;4.30;;;;;;;19.73;79.94;97809.95;104846;1258;99126;-85
2023/09/03 10:53:40;;;;;;;5.20;4.70;;;;;;;20.02;79.50;97807.62;104547;1273;96641;-85
2023/09/03 10:56:08;;;;;;;5.80;4.30;;;;;;;20.34;79.39;97808.15;104796;1255;97102;-85
2023/09/03 10:58:36;;;;;;;7.20;5.70;;;;;;;20.61;78.84;97807.02;105048;1267;102488;-84
2023/09/03 11:01:20;;;;;;;6.20;5.60;;;;;;;20.90;78.21;97807.10;104958;1258;100417;-77
2023/09/03 11:03:53;;;;;;;6.30;5.70;;;;;;;21.00;76.16;97807.85;104824;1261;99369;-77
2023/09/03 11:06:23;;;;;;;5.90;5.30;;;;;;;20.96;75.50;97803.89;104631;1260;96758;-76
2023/09/03 11:08:59;;;;;;;6.00;5.40;;;;;;;20.82;73.50;97809.64;104968;1268;97485;-77
2023/09/03 11:11:30;;;;;;;7.00;5.70;;;;;;;20.57;73.83;97806.16;104868;1269;102249;-77
2023/09/03 11:13:58;;;;;;;6.00;5.40;;;;;;;20.37;74.71;97791.21;104589;1257;101063;-77
2023/09/03 11:16:33;;;;;;;5.50;4.80;;;;;;;20.32;75.26;97787.60;104655;1261;99857;-84
2023/09/03 11:19:04;;;;;;;5.70;5.20;;;;;;;20.37;74.97;97786.91;104738;1258;97311;-84
2023/09/03 11:21:32;;;;;;;6.10;5.50;;;;;;;20.40;74.62;97793.30;104562;1264;97515;-85
2023/09/03 11:24:08;;;;;;;5.90;5.20;;;;;;;20.39;74.84;97797.06;104685;1259;102391;-84
2023/09/03 11:26:37;;;;;;;7.10;6.00;;;;;;;20.36;74.66;97795.52;104649;1261;100044;-76
2023/09/03 11:29:23;;;;;;;7.00;6.20;;;;;;;20.33;74.44;97793.92;104487;1273;99928;-76
2023/09/03 11:31:52;;;;;;;7.40;6.10;;;;;;;20.29;74.30;97793.73;104421;1276;97814;-76
2023/09/03 11:34:22;;;;;;;10.10;6.60;;;;;;;20.24;74.60;97798.41;104538;1258;97393;-76
2023/09/03 11:36:51;;;;;;;7.10;6.50;;;;;;;20.15;74.78;97796.59;104558;1278;100851;-76
2023/09/03 11:39:18;;;;;;;7.30;6.40;;;;;;;20.00;75.01;97797.13;104393;1278;102498;-76
2023/09/03 11:41:47;;;;;;;7.10;6.40;;;;;;;19.81;75.37;97801.35;104711;1260;99026;-76
2023/09/03 11:44:21;;;;;;;8.40;6.40;;;;;;;19.59;75.73;97798.31;104692;1259;96685;-76
2023/09/03 11:47:00;;;;;;;7.20;6.50;;;;;;;19.37;75.66;97803.98;104772;1260;97090;-76
2023/09/03 11:49:28;;;;;;;7.10;6.40;;;;;;;19.19;76.24;97805.81;104796;1269;102377;-74
2023/09/03 11:52:16;;;;;;;6.60;6.00;;;;;;;19.13;77.03;97798.67;104718;1259;100379;-76
2023/09/03 11:54:44;;;;;;;7.00;6.20;;;;;;;19.15;77.28;97787.59;104674;1261;100194;-77
2023/09/03 11:57:16;;;;;;;7.30;6.60;;;;;;;19.18;77.11;97786.42;104699;1269;97242;-77
2023/09/03 11:59:44;;;;;;;7.00;5.40;;;;;;;19.20;76.85;97786.13;104494;1264;96738;-77
2023/09/03 12:02:14;;;;;;;6.90;6.30;;;;;;;19.21;76.68;97782.57;104649;1263;101981;-83
2023/09/03 12:04:41;;;;;;;7.90;5.70;;;;;;;19.19;76.33;97773.09;104705;1271;101222;-80
2023/09/03 12:07:17;;;;;;;6.60;5.60;;;;;;;19.17;76.20;97776.67;104729;1276;99002;-74
2023/09/03 12:09:48;;;;;;;6.10;5.60;;;;;;;19.16;75.96;97790.95;104432;1258;97945;-74
2023/09/03 12:12:18;;;;;;;6.30;5.70;;;;;;;19.16;76.01;97797.30;104852;1270;97571;-75
2023/09/03 12:14:45;;;;;;;7.20;5.70;;;;;;;19.17;76.04;97796.71;104640;1263;102424;-75
2023/09/03 12:17:25;;;;;;;5.90;5.30;;;;;;;19.19;76.00;97795.10;104828;1270;101419;-84
2023/09/03 12:19:54;;;;;;;5.90;5.30;;;;;;;19.21;76.03;97796.90;104771;1261;98664;-83
2023/09/03 12:22:25;;;;;;;5.70;5.20;;;;;;;19.25;76.10;97805.49;104608;1274;97564;-84
2023/09/03 12:24:54;;;;;;;7.70;4.80;;;;;;;19.27;75.86;97806.11;104955;1258;96600;-75
2023/09/03 12:27:22;;;;;;;6.40;5.80;;;;;;;19.24;75.49;97797.54;104842;1269;102139;-83
2023/09/03 12:29:55;;;;;;;6.20;5.40;;;;;;;19.19;75.35;97802.04;104822;1266;100374;-83
2023/09/03 12:32:33;;;;;;;6.00;5.40;;;;;;;19.24;75.89;97804.83;104540;1273;100042;-84
2023/09/03 12:35:01;;;;;;;6.00;5.40;;;;;;;19.41;76.36;97808.80;104936;1258;96789;-83
2023/09/03 12:37:40;;;;;;;6.90;5.80;;;;;;;19.69;76.65;97812.15;104865;1259;97129;-84
2023/09/03 12:40:09;;;;;;;8.40;7.10;;;;;;;19.98;77.38;97805.16;104486;1277;102196;-84
2023/09/03 12:42:36;;;;;;;8.00;7.20;;;;;;;20.28;76.72;97802.23;104488;1264;101494;-83
2023/09/03 12:45:05;;;;;;;7.20;6.50;;;;;;;20.57;75.52;97794.75;104452;1273;106997;-75
2023/09/03 12:47:32;;;;;;;8.20;7.40;;;;;;;20.85;74.88;97788.58;104452;1264;97125;-76
2023/09/03 12:50:00;;;;;;;8.30;7.30;;;;;;;21.09;73.73;97781.52;104398;1266;97236;-76
2023/09/03 12:52:28;;;;;;;8.80;7.50;;;;;;;21.30;73.19;97779.42;104448;1274;102342;-76
2023/09/03 12:54:55;;;;;;;8.00;7.20;;;;;;;21.48;72.26;97773.69;104424;1261;101318;-76
2023/09/03 12:57:23;;;;;;;7.30;6.60;;;;;;;21.60;72.07;97768.16;104378;1264;100217;-76
2023/09/03 12:59:51;;;;;;;9.60;7.50;;;;;;;21.75;72.27;97765.98;104353;1264;96737;-76
2023/09/03 13:02:19;;;;;;;7.50;6.80;;;;;;;21.94;72.06;97765.38;104453;1274;97573;-80
2023/09/03 13:04:46;;;;;;;7.10;6.50;;;;;;;22.16;72.01;97765.98;104313;1271;102628;-84
2023/09/03 13:07:14;;;;;;;7.70;6.30;;;;;;;22.34;70.73;97765.56;104424;1264;101336;-84
2023/09/03 13:09:42;;;;;;;8.80;7.60;;;;;;;22.45;70.13;97764.06;104497;1264;97710;-84
2023/09/03 13:12:09;;;;;;;8.50;7.10;;;;;;;22.55;69.85;97767.56;104669;1264;97928;-84
2023/09/03 13:14:37;;;;;;;6.90;6.00;;;;;;;22.71;69.20;97773.56;104851;1261;97180;-84
2023/09/03 13:17:04;;;;;;;9.40;6.70;;;;;;;22.90;68.55;97768.79;104833;1271;111807;-84
2023/09/03 13:19:32;;;;;;;8.30;5.90;;;;;;;23.01;67.29;97766.92;104816;1258;100436;-83
2023/09/03 13:22:00;;;;;;;7.30;6.40;;;;;;;23.11;66.45;97771.83;104538;1264;100096;-77
2023/09/03 13:24:27;;;;;;;7.80;6.00;;;;;;;23.13;65.18;97766.37;104343;1260;97817;-77
2023/09/03 13:26:55;;;;;;;7.00;6.20;;;;;;;23.15;65.26;97764.65;104318;1270;96663;-77
2023/09/03 13:29:23;;;;;;;6.30;5.60;;;;;;;23.30;65.82;97767.20;104342;1273;102016;-78
2023/09/03 13:31:50;;;;;;;9.60;5.70;;;;;;;23.45;65.13;97759.95;104356;1274;101501;-78
2023/09/03 13:34:18;;;;;;;6.10;5.50;;;;;;;23.62;65.04;97755.18;104349;1277;99992;-77
2023/09/03 13:36:46;;;;;;;7.00;6.30;;;;;;;23.76;64.39;97756.41;104371;1271;97528;-78
2023/09/03 13:39:13;;;;;;;5.90;5.40;;;;;;;23.82;64.14;97756.13;104386;1264;97184;-78
2023/09/03 13:41:41;;;;;;;6.10;5.50;;;;;;;23.91;64.12;97754.77;104350;1265;102353;-78
2023/09/03 13:44:09;;;;;;;6.30;5.70;;;;;;;23.99;62.65;97748.37;104411;1274;100544;-82
2023/09/03 13:46:37;;;;;;;5.90;5.30;;;;;;;24.10;62.52;97751.59;104323;1271;99451;-83
2023/09/03 13:49:04;;;;;;;8.40;5.60;;;;;;;24.13;62.65;97754.15;104329;1266;96951;-82
2023/09/03 13:51:32;;;;;;;6.00;5.50;;;;;;;24.12;62.96;97751.91;104394;1261;97169;-82
2023/09/03 13:54:00;;;;;;;7.70;5.80;;;;;;;24.10;62.78;97747.73;104445;1264;101422;-82
2023/09/03 13:56:27;;;;;;;6.20;5.10;;;;;;;24.10;62.43;97749.43;104701;1271;101491;-82
2023/09/03 13:58:55;;;;;;;7.50;5.60;;;;;;;24.04;61.20;97745.35;104874;1261;99736;-82
2023/09/03 14:01:23;;;;;;;7.50;5.50;;;;;;;23.96;61.42;97749.95;104866;1259;96700;-82
2023/09/03 14:03:50;;;;;;;6.10;5.30;;;;;;;23.94;61.73;97750.72;104845;1255;97486;-82
2023/09/03 14:06:19;;;;;;;5.90;5.00;;;;;;;23.87;60.90;97752.00;104873;1270;102456;-82
2023/09/03 14:08:47;;;;;;;5.40;4.90;;;;;;;23.71;61.15;97752.29;104812;1254;100456;-79
2023/09/03 14:11:15;;;;;;;7.80;5.50;;;;;;;23.57;61.22;97752.90;104857;1260;100104;-81
2023/09/03 14:13:43;;;;;;;6.30;5.10;;;;;;;23.50;61.43;97751.06;104849;1270;97938;-80
2023/09/03 14:16:14;;;;;;;6.50;5.20;;;;;;;23.43;61.45;97756.66;104939;1257;97138;-81
2023/09/03 14:18:43;;;;;;;8.00;5.60;;;;;;;23.32;61.42;97750.52;104819;1270;101952;-81
2023/09/03 14:21:11;;;;;;;5.80;5.30;;;;;;;23.21;61.45;97749.52;104762;1270;100389;-82
2023/09/03 14:23:39;;;;;;;6.20;5.50;;;;;;;23.10;61.44;97756.80;104838;1254;99564;-82
2023/09/03 14:26:14;;;;;;;6.00;5.40;;;;;;;22.84;61.60;97756.20;104857;1260;97390;-82
2023/09/03 14:28:41;;;;;;;7.50;5.00;;;;;;;22.67;61.71;97752.94;104919;1270;97100;-82
2023/09/03 14:31:09;;;;;;;7.10;5.30;;;;;;;22.53;62.31;97750.40;104838;1257;102288;-82
2023/09/03 14:33:37;;;;;;;6.10;5.50;;;;;;;22.43;62.00;97748.33;104770;1261;100109;-81
2023/09/03 14:36:05;;;;;;;6.20;5.60;;;;;;;22.42;62.98;97751.30;104829;1257;99124;-83
2023/09/03 14:38:32;;;;;;;7.00;5.70;;;;;;;22.52;63.76;97746.48;104918;1261;96661;-81
2023/09/03 14:41:00;;;;;;;6.40;5.40;;;;;;;22.61;63.29;97744.81;104888;1257;97125;-81
2023/09/03 14:43:28;;;;;;;6.30;5.30;;;;;;;22.67;62.92;97739.90;104582;1267;101137;-81
2023/09/03 14:46:00;;;;;;;5.60;5.10;;;;;;;22.76;63.36;97746.60;104896;1270;100376;-77
2023/09/03 14:48:29;;;;;;;12.00;7.00;;;;;;;22.81;64.55;97754.57;104593;1260;100139;-79
2023/09/03 14:50:56;;;;;;;8.20;6.50;;;;;;;22.66;64.39;97753.44;104800;1254;98043;-78
2023/09/03 14:53:24;;;;;;;10.30;6.50;;;;;;;22.40;64.96;97760.05;104888;1277;97042;-80
2023/09/03 14:55:52;;;;;;;11.80;7.50;;;;;;;22.26;65.42;97772.30;104821;1260;102077;-79
2023/09/03 14:58:20;;;;;;;14.00;7.30;;;;;;;22.13;65.69;97772.70;104808;1261;101389;-84
2023/09/03 15:01:31;;;;;;;13.50;7.80;;;;;;;21.95;66.20;97770.88;104801;1255;99028;-85
2023/09/03 15:04:39;;;;;;;12.00;8.10;;;;;;;21.44;66.85;97772.70;104349;1263;97238;-85
2023/09/03 15:07:48;;;;;;;10.10;7.50;;;;;;;21.08;68.17;97771.11;103419;1280;96791;-84
2023/09/03 15:23:42;;;;;;;8.80;6.80;;;;;;;20.52;68.73;97780.46;102012;1297;636087;-79
2023/09/03 15:26:50;;;;;;;12.00;6.90;;;;;;;20.18;68.77;97780.89;103594;1287;95880;-80
2023/09/03 15:29:59;;;;;;;9.00;7.30;;;;;;;19.97;69.21;97788.18;103217;1288;96050;-82
2023/09/03 15:33:11;;;;;;;10.10;7.40;;;;;;;19.74;69.65;97797.02;102678;1289;98837;-81
2023/09/03 16:00:11;;;;;;;10.00;7.40;;;;;;;19.49;70.60;97823.98;102652;1286;640128;-82
2023/09/03 16:03:10;;;;;;;10.00;7.30;;;;;;;19.34;69.34;97827.98;99901;1276;5342259;-82
2023/09/03 16:06:17;;;;;;;8.80;7.90;;;;;;;19.11;70.22;97826.90;103350;1283;96028;-80
2023/09/03 16:09:24;;;;;;;9.00;7.20;;;;;;;19.02;70.60;97825.60;102879;1284;98584;-81
2023/09/03 16:48:42;;;;;;;9.30;8.30;;;;;;;18.62;71.66;97856.73;105599;1263;97793;-82
2023/09/03 16:51:49;;;;;;;9.00;8.00;;;;;;;18.42;71.88;97857.87;106343;1251;100236;-86
2023/09/03 16:54:56;;;;;;;9.60;8.70;;;;;;;18.30;72.16;97862.06;105546;1262;98860;-82
2023/09/03 16:57:46;;;;;;;9.70;8.80;;;;;;;18.13;72.44;97863.59;104704;1272;96073;-84
2023/09/03 17:11:16;;;;;;;11.50;10.50;;;;;;;17.51;73.48;97874.77;101638;1300;641568;-83
2023/09/03 17:14:22;;;;;;;10.50;9.30;;;;;;;17.27;73.71;97878.66;102709;1289;97004;-84
2023/09/03 17:17:29;;;;;;;11.00;9.80;;;;;;;17.10;74.18;97884.47;101648;1302;96822;-82
2023/09/03 17:30:57;;;;;;;9.80;8.80;;;;;;;17.02;74.86;97907.38;101528;1300;642155;-83
2023/09/03 17:34:06;;;;;;;10.20;9.20;;;;;;;16.92;75.19;97911.80;103459;1283;96024;-83
2023/09/03 17:37:13;;;;;;;10.20;9.10;;;;;;;16.87;75.30;97913.95;102236;1292;96099;-83
2023/09/03 17:40:04;;;;;;;10.40;9.30;;;;;;;16.83;75.39;97919.06;101798;1299;98595;-83
2023/09/03 17:43:11;;;;;;;9.50;8.70;;;;;;;16.76;75.56;97919.09;98383;1298;5406174;-82
